sensor_id;sensor_type;location;lat;lon;timestamp;P1;durP1;ratioP1;P2;durP2;ratioP2
78686;SDS011;68002;52.310;6.990;2023-05-28T00:02:15;8.60;;;3.50;;
78686;SDS011;68002;52.310;6.990;2023-05-28T00:04:41;9.10;;;3.33;;
78686;SDS011;68002;52.310;6.990;2023-05-28T00:07:06;8.33;;;3.43;;
78686;SDS011;68002;52.310;6.990;2023-05-28T00:09:31;7.70;;;3.17;;
78686;SDS011;68002;52.310;6.990;2023-05-28T00:11:56;7.00;;;3.10;;
78686;SDS011;68002;52.310;6.990;2023-05-28T00:14:21;8.43;;;2.97;;
78686;SDS011;68002;52.310;6.990;2023-05-28T00:16:47;6.17;;;3.10;;
78686;SDS011;68002;52.310;6.990;2023-05-28T00:19:12;7.70;;;3.20;;
78686;SDS011;68002;52.310;6.990;2023-05-28T00:21:37;12.17;;;3.63;;
78686;SDS011;68002;52.310;6.990;2023-05-28T00:24:03;8.47;;;3.93;;
78686;SDS011;68002;52.310;6.990;2023-05-28T00:26:28;8.65;;;3.10;;
78686;SDS011;68002;52.310;6.990;2023-05-28T00:28:54;5.60;;;2.80;;
78686;SDS011;68002;52.310;6.990;2023-05-28T00:31:19;6.93;;;3.13;;
78686;SDS011;68002;52.310;6.990;2023-05-28T00:33:44;9.93;;;3.90;;
78686;SDS011;68002;52.310;6.990;2023-05-28T00:36:12;8.77;;;4.40;;
78686;SDS011;68002;52.310;6.990;2023-05-28T00:38:37;10.75;;;3.75;;
78686;SDS011;68002;52.310;6.990;2023-05-28T00:41:03;8.10;;;3.80;;
78686;SDS011;68002;52.310;6.990;2023-05-28T00:43:28;10.23;;;3.90;;
78686;SDS011;68002;52.310;6.990;2023-05-28T00:45:54;9.52;;;3.97;;
78686;SDS011;68002;52.310;6.990;2023-05-28T00:48:22;13.25;;;4.57;;
78686;SDS011;68002;52.310;6.990;2023-05-28T00:50:48;9.07;;;4.07;;
78686;SDS011;68002;52.310;6.990;2023-05-28T00:53:14;11.73;;;4.18;;
78686;SDS011;68002;52.310;6.990;2023-05-28T00:55:39;13.87;;;4.93;;
78686;SDS011;68002;52.310;6.990;2023-05-28T00:58:04;12.00;;;4.27;;
78686;SDS011;68002;52.310;6.990;2023-05-28T01:00:30;11.00;;;5.00;;
78686;SDS011;68002;52.310;6.990;2023-05-28T01:02:55;11.23;;;4.37;;
78686;SDS011;68002;52.310;6.990;2023-05-28T01:05:20;9.00;;;3.80;;
78686;SDS011;68002;52.310;6.990;2023-05-28T01:07:45;10.60;;;5.03;;
78686;SDS011;68002;52.310;6.990;2023-05-28T01:10:11;12.27;;;4.60;;
78686;SDS011;68002;52.310;6.990;2023-05-28T01:12:36;12.13;;;4.20;;
78686;SDS011;68002;52.310;6.990;2023-05-28T01:15:03;11.35;;;3.97;;
78686;SDS011;68002;52.310;6.990;2023-05-28T01:17:28;11.20;;;4.00;;
78686;SDS011;68002;52.310;6.990;2023-05-28T01:19:55;10.85;;;4.72;;
78686;SDS011;68002;52.310;6.990;2023-05-28T01:22:21;9.87;;;4.27;;
78686;SDS011;68002;52.310;6.990;2023-05-28T01:24:53;12.93;;;4.35;;
78686;SDS011;68002;52.310;6.990;2023-05-28T01:27:19;11.90;;;4.13;;
78686;SDS011;68002;52.310;6.990;2023-05-28T01:29:44;17.58;;;4.93;;
78686;SDS011;68002;52.310;6.990;2023-05-28T01:32:09;11.23;;;4.43;;
78686;SDS011;68002;52.310;6.990;2023-05-28T01:34:34;12.47;;;4.83;;
78686;SDS011;68002;52.310;6.990;2023-05-28T01:37:03;11.00;;;4.40;;
78686;SDS011;68002;52.310;6.990;2023-05-28T01:39:34;14.15;;;4.72;;
78686;SDS011;68002;52.310;6.990;2023-05-28T01:42:02;8.75;;;3.63;;
78686;SDS011;68002;52.310;6.990;2023-05-28T01:44:28;13.48;;;4.05;;
78686;SDS011;68002;52.310;6.990;2023-05-28T01:46:55;15.10;;;4.47;;
78686;SDS011;68002;52.310;6.990;2023-05-28T01:49:21;10.23;;;4.03;;
78686;SDS011;68002;52.310;6.990;2023-05-28T01:51:47;10.27;;;4.13;;
78686;SDS011;68002;52.310;6.990;2023-05-28T01:54:12;12.40;;;4.43;;
78686;SDS011;68002;52.310;6.990;2023-05-28T01:56:38;11.63;;;3.37;;
78686;SDS011;68002;52.310;6.990;2023-05-28T01:59:03;8.37;;;3.93;;
78686;SDS011;68002;52.310;6.990;2023-05-28T02:01:29;9.60;;;3.57;;
78686;SDS011;68002;52.310;6.990;2023-05-28T02:03:56;10.18;;;4.93;;
78686;SDS011;68002;52.310;6.990;2023-05-28T02:06:22;10.85;;;4.05;;
78686;SDS011;68002;52.310;6.990;2023-05-28T02:08:48;8.68;;;3.67;;
78686;SDS011;68002;52.310;6.990;2023-05-28T02:11:13;9.57;;;3.47;;
78686;SDS011;68002;52.310;6.990;2023-05-28T02:13:39;12.53;;;4.27;;
78686;SDS011;68002;52.310;6.990;2023-05-28T02:16:04;11.27;;;3.93;;
78686;SDS011;68002;52.310;6.990;2023-05-28T02:18:29;13.82;;;4.10;;
78686;SDS011;68002;52.310;6.990;2023-05-28T02:20:55;8.70;;;3.47;;
78686;SDS011;68002;52.310;6.990;2023-05-28T02:23:20;9.33;;;3.27;;
78686;SDS011;68002;52.310;6.990;2023-05-28T02:25:45;11.40;;;3.30;;
78686;SDS011;68002;52.310;6.990;2023-05-28T02:28:10;8.63;;;3.57;;
78686;SDS011;68002;52.310;6.990;2023-05-28T02:30:35;11.77;;;5.03;;
78686;SDS011;68002;52.310;6.990;2023-05-28T02:33:01;9.73;;;4.37;;
78686;SDS011;68002;52.310;6.990;2023-05-28T02:35:26;11.07;;;4.23;;
78686;SDS011;68002;52.310;6.990;2023-05-28T02:37:51;7.87;;;3.93;;
78686;SDS011;68002;52.310;6.990;2023-05-28T02:40:16;10.37;;;3.77;;
78686;SDS011;68002;52.310;6.990;2023-05-28T02:42:42;10.63;;;4.30;;
78686;SDS011;68002;52.310;6.990;2023-05-28T02:45:07;10.10;;;4.20;;
78686;SDS011;68002;52.310;6.990;2023-05-28T02:47:32;14.02;;;5.35;;
78686;SDS011;68002;52.310;6.990;2023-05-28T02:49:58;11.97;;;3.73;;
78686;SDS011;68002;52.310;6.990;2023-05-28T02:52:23;8.30;;;4.03;;
78686;SDS011;68002;52.310;6.990;2023-05-28T02:54:48;11.30;;;4.50;;
78686;SDS011;68002;52.310;6.990;2023-05-28T02:57:13;13.43;;;5.53;;
78686;SDS011;68002;52.310;6.990;2023-05-28T02:59:38;14.23;;;5.43;;
78686;SDS011;68002;52.310;6.990;2023-05-28T03:02:04;10.10;;;4.10;;
78686;SDS011;68002;52.310;6.990;2023-05-28T03:04:29;10.20;;;4.83;;
78686;SDS011;68002;52.310;6.990;2023-05-28T03:06:54;13.63;;;5.20;;
78686;SDS011;68002;52.310;6.990;2023-05-28T03:09:19;12.43;;;4.87;;
78686;SDS011;68002;52.310;6.990;2023-05-28T03:11:44;13.67;;;4.43;;
78686;SDS011;68002;52.310;6.990;2023-05-28T03:14:10;14.90;;;4.20;;
78686;SDS011;68002;52.310;6.990;2023-05-28T03:16:35;13.90;;;4.73;;
78686;SDS011;68002;52.310;6.990;2023-05-28T03:19:00;12.07;;;4.97;;
78686;SDS011;68002;52.310;6.990;2023-05-28T03:21:25;14.10;;;5.13;;
78686;SDS011;68002;52.310;6.990;2023-05-28T03:23:50;12.40;;;5.40;;
78686;SDS011;68002;52.310;6.990;2023-05-28T03:26:16;14.43;;;5.47;;
78686;SDS011;68002;52.310;6.990;2023-05-28T03:28:41;12.87;;;4.87;;
78686;SDS011;68002;52.310;6.990;2023-05-28T03:31:06;12.03;;;4.07;;
78686;SDS011;68002;52.310;6.990;2023-05-28T03:33:31;13.10;;;5.30;;
78686;SDS011;68002;52.310;6.990;2023-05-28T03:35:57;11.03;;;4.27;;
78686;SDS011;68002;52.310;6.990;2023-05-28T03:38:22;14.60;;;4.67;;
78686;SDS011;68002;52.310;6.990;2023-05-28T03:40:47;15.67;;;5.10;;
78686;SDS011;68002;52.310;6.990;2023-05-28T03:43:12;13.03;;;5.20;;
78686;SDS011;68002;52.310;6.990;2023-05-28T03:45:37;14.93;;;5.40;;
78686;SDS011;68002;52.310;6.990;2023-05-28T03:48:03;12.40;;;4.80;;
78686;SDS011;68002;52.310;6.990;2023-05-28T03:50:28;17.40;;;6.07;;
78686;SDS011;68002;52.310;6.990;2023-05-28T03:52:53;15.40;;;5.53;;
78686;SDS011;68002;52.310;6.990;2023-05-28T03:55:18;11.03;;;4.40;;
78686;SDS011;68002;52.310;6.990;2023-05-28T03:57:44;13.87;;;4.87;;
78686;SDS011;68002;52.310;6.990;2023-05-28T04:00:09;9.83;;;5.00;;
78686;SDS011;68002;52.310;6.990;2023-05-28T04:02:35;12.48;;;5.05;;
78686;SDS011;68002;52.310;6.990;2023-05-28T04:05:00;9.73;;;4.17;;
78686;SDS011;68002;52.310;6.990;2023-05-28T04:07:25;14.53;;;4.53;;
78686;SDS011;68002;52.310;6.990;2023-05-28T04:09:51;17.60;;;5.43;;
78686;SDS011;68002;52.310;6.990;2023-05-28T04:12:16;15.17;;;5.80;;
78686;SDS011;68002;52.310;6.990;2023-05-28T04:14:41;12.30;;;4.40;;
78686;SDS011;68002;52.310;6.990;2023-05-28T04:17:07;13.77;;;5.80;;
78686;SDS011;68002;52.310;6.990;2023-05-28T04:19:33;15.88;;;5.75;;
78686;SDS011;68002;52.310;6.990;2023-05-28T04:21:58;11.10;;;4.00;;
78686;SDS011;68002;52.310;6.990;2023-05-28T04:24:23;11.77;;;4.70;;
78686;SDS011;68002;52.310;6.990;2023-05-28T04:26:48;13.83;;;5.43;;
78686;SDS011;68002;52.310;6.990;2023-05-28T04:29:14;11.10;;;4.40;;
78686;SDS011;68002;52.310;6.990;2023-05-28T04:31:39;17.40;;;5.03;;
78686;SDS011;68002;52.310;6.990;2023-05-28T04:34:04;16.00;;;6.03;;
78686;SDS011;68002;52.310;6.990;2023-05-28T04:36:29;13.97;;;5.60;;
78686;SDS011;68002;52.310;6.990;2023-05-28T04:38:55;13.20;;;5.30;;
78686;SDS011;68002;52.310;6.990;2023-05-28T04:41:20;9.55;;;4.47;;
78686;SDS011;68002;52.310;6.990;2023-05-28T04:43:46;16.73;;;6.07;;
78686;SDS011;68002;52.310;6.990;2023-05-28T04:46:11;14.53;;;6.00;;
78686;SDS011;68002;52.310;6.990;2023-05-28T04:48:36;11.90;;;5.17;;
78686;SDS011;68002;52.310;6.990;2023-05-28T04:51:01;12.57;;;4.57;;
78686;SDS011;68002;52.310;6.990;2023-05-28T04:53:27;16.43;;;5.03;;
78686;SDS011;68002;52.310;6.990;2023-05-28T04:55:52;13.87;;;5.43;;
78686;SDS011;68002;52.310;6.990;2023-05-28T04:58:17;16.27;;;5.30;;
78686;SDS011;68002;52.310;6.990;2023-05-28T05:00:42;15.57;;;5.63;;
78686;SDS011;68002;52.310;6.990;2023-05-28T05:03:08;15.07;;;5.47;;
78686;SDS011;68002;52.310;6.990;2023-05-28T05:05:33;11.50;;;5.47;;
78686;SDS011;68002;52.310;6.990;2023-05-28T05:07:58;13.63;;;5.10;;
78686;SDS011;68002;52.310;6.990;2023-05-28T05:10:24;13.75;;;5.50;;
78686;SDS011;68002;52.310;6.990;2023-05-28T05:12:49;13.73;;;4.70;;
78686;SDS011;68002;52.310;6.990;2023-05-28T05:15:14;18.10;;;6.67;;
78686;SDS011;68002;52.310;6.990;2023-05-28T05:17:39;15.00;;;5.00;;
78686;SDS011;68002;52.310;6.990;2023-05-28T05:20:05;12.50;;;4.37;;
78686;SDS011;68002;52.310;6.990;2023-05-28T05:22:31;15.68;;;5.43;;
78686;SDS011;68002;52.310;6.990;2023-05-28T05:24:56;11.50;;;4.40;;
78686;SDS011;68002;52.310;6.990;2023-05-28T05:27:21;12.32;;;6.10;;
78686;SDS011;68002;52.310;6.990;2023-05-28T05:29:47;12.43;;;5.43;;
78686;SDS011;68002;52.310;6.990;2023-05-28T05:32:12;12.47;;;5.53;;
78686;SDS011;68002;52.310;6.990;2023-05-28T05:34:37;9.07;;;4.33;;
78686;SDS011;68002;52.310;6.990;2023-05-28T05:37:03;12.50;;;5.53;;
78686;SDS011;68002;52.310;6.990;2023-05-28T05:39:28;15.88;;;5.63;;
78686;SDS011;68002;52.310;6.990;2023-05-28T05:41:54;11.68;;;4.75;;
78686;SDS011;68002;52.310;6.990;2023-05-28T05:44:19;12.52;;;4.97;;
78686;SDS011;68002;52.310;6.990;2023-05-28T05:46:45;12.47;;;6.57;;
78686;SDS011;68002;52.310;6.990;2023-05-28T05:49:10;13.17;;;6.07;;
78686;SDS011;68002;52.310;6.990;2023-05-28T05:51:35;11.43;;;4.35;;
78686;SDS011;68002;52.310;6.990;2023-05-28T05:54:01;10.17;;;5.10;;
78686;SDS011;68002;52.310;6.990;2023-05-28T05:56:27;11.90;;;5.63;;
78686;SDS011;68002;52.310;6.990;2023-05-28T05:58:52;13.45;;;5.45;;
78686;SDS011;68002;52.310;6.990;2023-05-28T06:01:17;11.50;;;4.83;;
78686;SDS011;68002;52.310;6.990;2023-05-28T06:03:45;12.25;;;5.25;;
78686;SDS011;68002;52.310;6.990;2023-05-28T06:06:10;15.33;;;5.83;;
78686;SDS011;68002;52.310;6.990;2023-05-28T06:08:35;9.50;;;4.90;;
78686;SDS011;68002;52.310;6.990;2023-05-28T06:11:00;12.07;;;5.90;;
78686;SDS011;68002;52.310;6.990;2023-05-28T06:13:26;13.32;;;5.32;;
78686;SDS011;68002;52.310;6.990;2023-05-28T06:15:51;9.67;;;4.50;;
78686;SDS011;68002;52.310;6.990;2023-05-28T06:18:16;10.33;;;4.33;;
78686;SDS011;68002;52.310;6.990;2023-05-28T06:20:42;7.67;;;4.27;;
78686;SDS011;68002;52.310;6.990;2023-05-28T06:23:07;15.87;;;7.20;;
78686;SDS011;68002;52.310;6.990;2023-05-28T06:25:32;10.30;;;3.87;;
78686;SDS011;68002;52.310;6.990;2023-05-28T06:27:57;12.00;;;5.47;;
78686;SDS011;68002;52.310;6.990;2023-05-28T06:30:22;11.73;;;4.77;;
78686;SDS011;68002;52.310;6.990;2023-05-28T06:32:48;11.97;;;4.43;;
78686;SDS011;68002;52.310;6.990;2023-05-28T06:35:13;10.67;;;4.83;;
78686;SDS011;68002;52.310;6.990;2023-05-28T06:37:38;15.63;;;5.37;;
78686;SDS011;68002;52.310;6.990;2023-05-28T06:40:03;9.67;;;4.90;;
78686;SDS011;68002;52.310;6.990;2023-05-28T06:42:29;9.90;;;3.75;;
78686;SDS011;68002;52.310;6.990;2023-05-28T06:44:54;11.43;;;5.07;;
78686;SDS011;68002;52.310;6.990;2023-05-28T06:47:19;10.43;;;4.77;;
78686;SDS011;68002;52.310;6.990;2023-05-28T06:49:45;14.07;;;5.57;;
78686;SDS011;68002;52.310;6.990;2023-05-28T06:52:10;9.33;;;5.27;;
78686;SDS011;68002;52.310;6.990;2023-05-28T06:54:35;12.00;;;5.23;;
78686;SDS011;68002;52.310;6.990;2023-05-28T06:57:00;13.00;;;5.20;;
78686;SDS011;68002;52.310;6.990;2023-05-28T06:59:25;9.73;;;4.60;;
78686;SDS011;68002;52.310;6.990;2023-05-28T07:01:51;14.63;;;5.57;;
78686;SDS011;68002;52.310;6.990;2023-05-28T07:04:16;10.93;;;5.13;;
78686;SDS011;68002;52.310;6.990;2023-05-28T07:06:41;13.53;;;5.63;;
78686;SDS011;68002;52.310;6.990;2023-05-28T07:09:06;13.53;;;5.90;;
78686;SDS011;68002;52.310;6.990;2023-05-28T07:11:31;10.93;;;4.90;;
78686;SDS011;68002;52.310;6.990;2023-05-28T07:13:57;11.57;;;6.07;;
78686;SDS011;68002;52.310;6.990;2023-05-28T07:16:22;13.00;;;6.37;;
78686;SDS011;68002;52.310;6.990;2023-05-28T07:18:47;10.97;;;4.67;;
78686;SDS011;68002;52.310;6.990;2023-05-28T07:21:13;10.88;;;5.55;;
78686;SDS011;68002;52.310;6.990;2023-05-28T07:23:38;13.13;;;5.53;;
78686;SDS011;68002;52.310;6.990;2023-05-28T07:26:03;12.13;;;5.10;;
78686;SDS011;68002;52.310;6.990;2023-05-28T07:28:28;12.23;;;5.50;;
78686;SDS011;68002;52.310;6.990;2023-05-28T07:30:54;10.80;;;5.43;;
78686;SDS011;68002;52.310;6.990;2023-05-28T07:33:19;9.53;;;5.90;;
78686;SDS011;68002;52.310;6.990;2023-05-28T07:35:45;11.10;;;5.97;;
78686;SDS011;68002;52.310;6.990;2023-05-28T07:38:10;18.00;;;6.47;;
78686;SDS011;68002;52.310;6.990;2023-05-28T07:40:35;14.83;;;6.07;;
78686;SDS011;68002;52.310;6.990;2023-05-28T07:43:00;15.63;;;6.73;;
78686;SDS011;68002;52.310;6.990;2023-05-28T07:45:25;11.77;;;6.03;;
78686;SDS011;68002;52.310;6.990;2023-05-28T07:47:51;16.17;;;7.03;;
78686;SDS011;68002;52.310;6.990;2023-05-28T07:50:16;14.07;;;6.40;;
78686;SDS011;68002;52.310;6.990;2023-05-28T07:52:41;10.10;;;5.33;;
78686;SDS011;68002;52.310;6.990;2023-05-28T07:55:06;11.13;;;5.27;;
78686;SDS011;68002;52.310;6.990;2023-05-28T07:57:32;11.40;;;5.10;;
78686;SDS011;68002;52.310;6.990;2023-05-28T07:59:57;13.88;;;5.72;;
78686;SDS011;68002;52.310;6.990;2023-05-28T08:02:23;15.47;;;5.67;;
78686;SDS011;68002;52.310;6.990;2023-05-28T08:04:48;12.63;;;6.43;;
78686;SDS011;68002;52.310;6.990;2023-05-28T08:07:14;10.52;;;5.18;;
78686;SDS011;68002;52.310;6.990;2023-05-28T08:09:39;14.97;;;6.27;;
78686;SDS011;68002;52.310;6.990;2023-05-28T08:12:04;10.70;;;4.90;;
78686;SDS011;68002;52.310;6.990;2023-05-28T08:14:30;12.53;;;5.77;;
78686;SDS011;68002;52.310;6.990;2023-05-28T08:16:55;16.90;;;6.47;;
78686;SDS011;68002;52.310;6.990;2023-05-28T08:19:20;12.77;;;5.70;;
78686;SDS011;68002;52.310;6.990;2023-05-28T08:21:45;11.30;;;5.30;;
78686;SDS011;68002;52.310;6.990;2023-05-28T08:24:11;11.20;;;6.27;;
78686;SDS011;68002;52.310;6.990;2023-05-28T08:26:38;9.63;;;5.20;;
78686;SDS011;68002;52.310;6.990;2023-05-28T08:29:03;13.90;;;6.18;;
78686;SDS011;68002;52.310;6.990;2023-05-28T08:31:29;12.07;;;5.27;;
78686;SDS011;68002;52.310;6.990;2023-05-28T08:33:54;13.73;;;5.30;;
78686;SDS011;68002;52.310;6.990;2023-05-28T08:36:20;11.50;;;5.55;;
78686;SDS011;68002;52.310;6.990;2023-05-28T08:38:45;14.13;;;6.20;;
78686;SDS011;68002;52.310;6.990;2023-05-28T08:41:11;9.63;;;5.30;;
78686;SDS011;68002;52.310;6.990;2023-05-28T08:43:37;13.02;;;5.90;;
78686;SDS011;68002;52.310;6.990;2023-05-28T08:46:02;13.13;;;5.70;;
78686;SDS011;68002;52.310;6.990;2023-05-28T08:48:28;11.55;;;5.03;;
78686;SDS011;68002;52.310;6.990;2023-05-28T08:50:58;11.75;;;6.63;;
78686;SDS011;68002;52.310;6.990;2023-05-28T08:53:23;10.52;;;5.43;;
78686;SDS011;68002;52.310;6.990;2023-05-28T08:55:51;9.68;;;4.93;;
78686;SDS011;68002;52.310;6.990;2023-05-28T08:58:17;9.65;;;4.82;;
78686;SDS011;68002;52.310;6.990;2023-05-28T09:00:42;9.38;;;4.47;;
78686;SDS011;68002;52.310;6.990;2023-05-28T09:03:07;10.30;;;5.10;;
78686;SDS011;68002;52.310;6.990;2023-05-28T09:05:36;8.50;;;4.10;;
78686;SDS011;68002;52.310;6.990;2023-05-28T09:08:02;12.48;;;7.25;;
78686;SDS011;68002;52.310;6.990;2023-05-28T09:10:31;8.77;;;4.15;;
78686;SDS011;68002;52.310;6.990;2023-05-28T09:12:57;6.40;;;3.85;;
78686;SDS011;68002;52.310;6.990;2023-05-28T09:15:24;8.63;;;4.43;;
78686;SDS011;68002;52.310;6.990;2023-05-28T09:17:49;9.35;;;3.92;;
78686;SDS011;68002;52.310;6.990;2023-05-28T09:20:14;10.27;;;5.00;;
78686;SDS011;68002;52.310;6.990;2023-05-28T09:22:40;11.23;;;5.40;;
78686;SDS011;68002;52.310;6.990;2023-05-28T09:25:06;9.10;;;4.63;;
78686;SDS011;68002;52.310;6.990;2023-05-28T09:27:32;9.25;;;4.50;;
78686;SDS011;68002;52.310;6.990;2023-05-28T09:30:01;8.38;;;4.13;;
78686;SDS011;68002;52.310;6.990;2023-05-28T09:32:32;8.90;;;3.33;;
78686;SDS011;68002;52.310;6.990;2023-05-28T09:34:58;8.07;;;4.07;;
78686;SDS011;68002;52.310;6.990;2023-05-28T09:37:23;10.65;;;4.28;;
78686;SDS011;68002;52.310;6.990;2023-05-28T09:39:58;10.03;;;4.27;;
78686;SDS011;68002;52.310;6.990;2023-05-28T09:42:25;9.02;;;4.15;;
78686;SDS011;68002;52.310;6.990;2023-05-28T09:44:50;8.27;;;3.53;;
78686;SDS011;68002;52.310;6.990;2023-05-28T09:47:16;8.37;;;3.97;;
78686;SDS011;68002;52.310;6.990;2023-05-28T09:49:43;7.88;;;3.63;;
78686;SDS011;68002;52.310;6.990;2023-05-28T09:52:09;7.07;;;3.65;;
78686;SDS011;68002;52.310;6.990;2023-05-28T09:54:41;9.50;;;3.97;;
78686;SDS011;68002;52.310;6.990;2023-05-28T09:57:10;7.30;;;3.20;;
78686;SDS011;68002;52.310;6.990;2023-05-28T09:59:36;9.00;;;3.65;;
78686;SDS011;68002;52.310;6.990;2023-05-28T10:02:09;8.70;;;3.33;;
78686;SDS011;68002;52.310;6.990;2023-05-28T10:04:47;7.75;;;3.58;;
78686;SDS011;68002;52.310;6.990;2023-05-28T10:07:22;6.78;;;3.35;;
78686;SDS011;68002;52.310;6.990;2023-05-28T10:09:50;9.50;;;4.47;;
78686;SDS011;68002;52.310;6.990;2023-05-28T10:12:17;7.22;;;3.70;;
78686;SDS011;68002;52.310;6.990;2023-05-28T10:14:47;7.95;;;3.70;;
78686;SDS011;68002;52.310;6.990;2023-05-28T10:17:15;11.07;;;3.72;;
78686;SDS011;68002;52.310;6.990;2023-05-28T10:19:41;7.55;;;3.75;;
78686;SDS011;68002;52.310;6.990;2023-05-28T10:22:09;6.78;;;3.00;;
78686;SDS011;68002;52.310;6.990;2023-05-28T10:24:35;6.03;;;3.00;;
78686;SDS011;68002;52.310;6.990;2023-05-28T10:27:03;6.60;;;3.55;;
78686;SDS011;68002;52.310;6.990;2023-05-28T10:29:36;6.13;;;2.75;;
78686;SDS011;68002;52.310;6.990;2023-05-28T10:32:03;8.55;;;3.35;;
78686;SDS011;68002;52.310;6.990;2023-05-28T10:34:30;9.60;;;3.78;;
78686;SDS011;68002;52.310;6.990;2023-05-28T10:36:56;10.90;;;4.50;;
78686;SDS011;68002;52.310;6.990;2023-05-28T10:39:21;10.32;;;3.33;;
78686;SDS011;68002;52.310;6.990;2023-05-28T10:41:46;7.07;;;3.63;;
78686;SDS011;68002;52.310;6.990;2023-05-28T10:44:13;7.32;;;3.83;;
78686;SDS011;68002;52.310;6.990;2023-05-28T10:46:39;5.37;;;2.50;;
78686;SDS011;68002;52.310;6.990;2023-05-28T10:49:06;7.10;;;3.25;;
78686;SDS011;68002;52.310;6.990;2023-05-28T10:57:05;8.13;;;2.95;;
78686;SDS011;68002;52.310;6.990;2023-05-28T11:02:24;9.73;;;3.78;;
78686;SDS011;68002;52.310;6.990;2023-05-28T11:04:54;7.60;;;3.67;;
78686;SDS011;68002;52.310;6.990;2023-05-28T11:07:21;6.53;;;3.13;;
78686;SDS011;68002;52.310;6.990;2023-05-28T11:09:48;7.30;;;3.08;;
78686;SDS011;68002;52.310;6.990;2023-05-28T11:12:14;9.20;;;3.20;;
78686;SDS011;68002;52.310;6.990;2023-05-28T11:14:39;8.77;;;3.07;;
78686;SDS011;68002;52.310;6.990;2023-05-28T11:17:06;9.00;;;3.33;;
78686;SDS011;68002;52.310;6.990;2023-05-28T11:19:42;8.50;;;3.10;;
78686;SDS011;68002;52.310;6.990;2023-05-28T11:22:12;7.30;;;3.25;;
78686;SDS011;68002;52.310;6.990;2023-05-28T11:24:54;8.52;;;3.13;;
78686;SDS011;68002;52.310;6.990;2023-05-28T11:27:24;7.95;;;2.92;;
78686;SDS011;68002;52.310;6.990;2023-05-28T11:29:54;10.23;;;3.22;;
78686;SDS011;68002;52.310;6.990;2023-05-28T11:32:20;6.65;;;2.67;;
78686;SDS011;68002;52.310;6.990;2023-05-28T11:34:49;7.13;;;2.75;;
78686;SDS011;68002;52.310;6.990;2023-05-28T11:37:16;4.65;;;2.33;;
78686;SDS011;68002;52.310;6.990;2023-05-28T11:39:51;7.47;;;2.67;;
78686;SDS011;68002;52.310;6.990;2023-05-28T11:42:18;7.30;;;3.65;;
78686;SDS011;68002;52.310;6.990;2023-05-28T11:44:47;7.22;;;3.00;;
78686;SDS011;68002;52.310;6.990;2023-05-28T11:47:13;6.55;;;3.17;;
78686;SDS011;68002;52.310;6.990;2023-05-28T11:49:39;7.60;;;3.03;;
78686;SDS011;68002;52.310;6.990;2023-05-28T11:52:09;6.90;;;2.70;;
78686;SDS011;68002;52.310;6.990;2023-05-28T11:54:42;9.88;;;3.03;;
78686;SDS011;68002;52.310;6.990;2023-05-28T11:57:09;6.45;;;2.90;;
78686;SDS011;68002;52.310;6.990;2023-05-28T11:59:35;8.20;;;2.95;;
78686;SDS011;68002;52.310;6.990;2023-05-28T12:04:35;5.68;;;2.75;;
78686;SDS011;68002;52.310;6.990;2023-05-28T12:07:00;7.60;;;2.97;;
78686;SDS011;68002;52.310;6.990;2023-05-28T12:09:25;7.10;;;3.13;;
78686;SDS011;68002;52.310;6.990;2023-05-28T12:12:09;6.60;;;2.87;;
78686;SDS011;68002;52.310;6.990;2023-05-28T12:14:35;8.82;;;3.08;;
78686;SDS011;68002;52.310;6.990;2023-05-28T12:17:04;6.07;;;3.10;;
78686;SDS011;68002;52.310;6.990;2023-05-28T12:19:31;5.93;;;2.90;;
78686;SDS011;68002;52.310;6.990;2023-05-28T12:21:57;6.18;;;2.78;;
78686;SDS011;68002;52.310;6.990;2023-05-28T12:24:23;5.23;;;2.50;;
78686;SDS011;68002;52.310;6.990;2023-05-28T12:26:51;6.88;;;3.35;;
78686;SDS011;68002;52.310;6.990;2023-05-28T12:29:16;8.07;;;3.07;;
78686;SDS011;68002;52.310;6.990;2023-05-28T12:31:42;6.13;;;2.57;;
78686;SDS011;68002;52.310;6.990;2023-05-28T12:34:07;4.83;;;2.47;;
78686;SDS011;68002;52.310;6.990;2023-05-28T12:36:32;7.03;;;2.90;;
78686;SDS011;68002;52.310;6.990;2023-05-28T12:38:57;6.80;;;2.87;;
78686;SDS011;68002;52.310;6.990;2023-05-28T12:41:22;6.07;;;2.80;;
78686;SDS011;68002;52.310;6.990;2023-05-28T12:43:48;6.17;;;2.80;;
78686;SDS011;68002;52.310;6.990;2023-05-28T12:46:13;6.63;;;2.77;;
78686;SDS011;68002;52.310;6.990;2023-05-28T12:48:38;7.50;;;3.43;;
78686;SDS011;68002;52.310;6.990;2023-05-28T12:51:03;6.20;;;3.00;;
78686;SDS011;68002;52.310;6.990;2023-05-28T12:53:29;7.13;;;3.13;;
78686;SDS011;68002;52.310;6.990;2023-05-28T12:55:54;6.60;;;2.80;;
78686;SDS011;68002;52.310;6.990;2023-05-28T12:58:19;7.63;;;3.50;;
78686;SDS011;68002;52.310;6.990;2023-05-28T13:00:44;6.23;;;2.93;;
78686;SDS011;68002;52.310;6.990;2023-05-28T13:03:10;6.40;;;3.57;;
78686;SDS011;68002;52.310;6.990;2023-05-28T13:05:35;6.57;;;2.60;;
78686;SDS011;68002;52.310;6.990;2023-05-28T13:08:00;6.93;;;2.47;;
78686;SDS011;68002;52.310;6.990;2023-05-28T13:10:26;7.68;;;3.47;;
78686;SDS011;68002;52.310;6.990;2023-05-28T13:12:51;5.45;;;2.70;;
78686;SDS011;68002;52.310;6.990;2023-05-28T13:15:16;7.10;;;2.80;;
78686;SDS011;68002;52.310;6.990;2023-05-28T13:17:42;10.20;;;3.43;;
78686;SDS011;68002;52.310;6.990;2023-05-28T13:20:07;7.37;;;3.00;;
78686;SDS011;68002;52.310;6.990;2023-05-28T13:22:32;6.68;;;3.30;;
78686;SDS011;68002;52.310;6.990;2023-05-28T13:24:58;5.73;;;2.77;;
78686;SDS011;68002;52.310;6.990;2023-05-28T13:27:23;7.10;;;3.00;;
78686;SDS011;68002;52.310;6.990;2023-05-28T13:29:48;6.97;;;3.00;;
78686;SDS011;68002;52.310;6.990;2023-05-28T13:32:13;6.17;;;2.97;;
78686;SDS011;68002;52.310;6.990;2023-05-28T13:34:38;7.50;;;3.00;;
78686;SDS011;68002;52.310;6.990;2023-05-28T13:37:04;7.53;;;3.17;;
78686;SDS011;68002;52.310;6.990;2023-05-28T13:39:29;7.07;;;3.53;;
78686;SDS011;68002;52.310;6.990;2023-05-28T13:41:54;8.83;;;3.20;;
78686;SDS011;68002;52.310;6.990;2023-05-28T13:44:20;7.03;;;2.90;;
78686;SDS011;68002;52.310;6.990;2023-05-28T13:46:45;4.83;;;2.60;;
78686;SDS011;68002;52.310;6.990;2023-05-28T13:49:10;6.53;;;3.20;;
78686;SDS011;68002;52.310;6.990;2023-05-28T13:51:35;7.63;;;3.37;;
78686;SDS011;68002;52.310;6.990;2023-05-28T13:54:01;9.23;;;3.85;;
78686;SDS011;68002;52.310;6.990;2023-05-28T13:56:26;6.77;;;2.97;;
78686;SDS011;68002;52.310;6.990;2023-05-28T13:58:51;8.57;;;3.40;;
78686;SDS011;68002;52.310;6.990;2023-05-28T14:01:17;5.73;;;3.07;;
78686;SDS011;68002;52.310;6.990;2023-05-28T14:03:42;5.23;;;2.73;;
78686;SDS011;68002;52.310;6.990;2023-05-28T14:06:07;6.23;;;3.23;;
78686;SDS011;68002;52.310;6.990;2023-05-28T14:08:32;5.13;;;2.90;;
78686;SDS011;68002;52.310;6.990;2023-05-28T14:10:57;6.80;;;3.30;;
78686;SDS011;68002;52.310;6.990;2023-05-28T14:13:23;7.67;;;3.37;;
78686;SDS011;68002;52.310;6.990;2023-05-28T14:15:48;7.10;;;3.60;;
78686;SDS011;68002;52.310;6.990;2023-05-28T14:18:13;5.83;;;2.87;;
78686;SDS011;68002;52.310;6.990;2023-05-28T14:20:38;8.82;;;3.00;;
78686;SDS011;68002;52.310;6.990;2023-05-28T14:23:04;7.90;;;3.17;;
78686;SDS011;68002;52.310;6.990;2023-05-28T14:25:29;5.40;;;2.83;;
78686;SDS011;68002;52.310;6.990;2023-05-28T14:27:55;7.93;;;3.42;;
78686;SDS011;68002;52.310;6.990;2023-05-28T14:30:20;7.27;;;3.07;;
78686;SDS011;68002;52.310;6.990;2023-05-28T14:32:45;7.77;;;3.47;;
78686;SDS011;68002;52.310;6.990;2023-05-28T14:35:10;7.63;;;2.90;;
78686;SDS011;68002;52.310;6.990;2023-05-28T14:37:36;6.57;;;3.27;;
78686;SDS011;68002;52.310;6.990;2023-05-28T14:40:01;7.80;;;3.07;;
78686;SDS011;68002;52.310;6.990;2023-05-28T14:42:26;7.77;;;3.37;;
78686;SDS011;68002;52.310;6.990;2023-05-28T14:44:51;6.83;;;2.87;;